sensor_id;sensor_type;location;lat;lon;timestamp;P1;durP1;ratioP1;P2;durP2;ratioP2
66523;SDS011;53350;52.210;5.160;2024-01-30T00:00:11;20.08;;;13.18;;
66523;SDS011;53350;52.210;5.160;2024-01-30T00:02:38;18.17;;;12.25;;
66523;SDS011;53350;52.210;5.160;2024-01-30T00:05:04;19.65;;;11.70;;
66523;SDS011;53350;52.210;5.160;2024-01-30T00:07:31;18.02;;;11.98;;
66523;SDS011;53350;52.210;5.160;2024-01-30T00:09:59;16.75;;;11.70;;
66523;SDS011;53350;52.210;5.160;2024-01-30T00:12:25;18.98;;;12.70;;
66523;SDS011;53350;52.210;5.160;2024-01-30T00:14:52;19.08;;;11.35;;
66523;SDS011;53350;52.210;5.160;2024-01-30T00:17:19;18.83;;;12.02;;
66523;SDS011;53350;52.210;5.160;2024-01-30T00:19:45;20.35;;;11.93;;
66523;SDS011;53350;52.210;5.160;2024-01-30T00:22:12;18.48;;;11.52;;
66523;SDS011;53350;52.210;5.160;2024-01-30T00:24:38;17.35;;;11.65;;
66523;SDS011;53350;52.210;5.160;2024-01-30T00:27:06;19.73;;;11.80;;
66523;SDS011;53350;52.210;5.160;2024-01-30T00:29:33;21.20;;;11.82;;
66523;SDS011;53350;52.210;5.160;2024-01-30T00:32:00;18.60;;;12.10;;
66523;SDS011;53350;52.210;5.160;2024-01-30T00:34:26;17.50;;;10.65;;
66523;SDS011;53350;52.210;5.160;2024-01-30T00:36:53;17.05;;;11.18;;
66523;SDS011;53350;52.210;5.160;2024-01-30T00:39:19;16.52;;;11.02;;
66523;SDS011;53350;52.210;5.160;2024-01-30T00:41:45;19.58;;;11.73;;
66523;SDS011;53350;52.210;5.160;2024-01-30T00:44:13;17.55;;;11.32;;
66523;SDS011;53350;52.210;5.160;2024-01-30T00:46:40;18.40;;;11.07;;
66523;SDS011;53350;52.210;5.160;2024-01-30T00:49:06;19.30;;;11.63;;
66523;SDS011;53350;52.210;5.160;2024-01-30T00:51:32;19.33;;;10.57;;
66523;SDS011;53350;52.210;5.160;2024-01-30T00:53:59;18.63;;;10.65;;
66523;SDS011;53350;52.210;5.160;2024-01-30T00:56:25;19.10;;;11.77;;
66523;SDS011;53350;52.210;5.160;2024-01-30T00:58:52;20.50;;;11.02;;
66523;SDS011;53350;52.210;5.160;2024-01-30T01:01:20;20.67;;;11.25;;
66523;SDS011;53350;52.210;5.160;2024-01-30T01:03:46;18.80;;;11.68;;
66523;SDS011;53350;52.210;5.160;2024-01-30T01:06:13;13.68;;;10.00;;
66523;SDS011;53350;52.210;5.160;2024-01-30T01:08:39;20.63;;;10.65;;
66523;SDS011;53350;52.210;5.160;2024-01-30T01:11:06;15.20;;;9.95;;
66523;SDS011;53350;52.210;5.160;2024-01-30T01:13:32;18.27;;;10.30;;
66523;SDS011;53350;52.210;5.160;2024-01-30T01:15:59;17.15;;;10.55;;
66523;SDS011;53350;52.210;5.160;2024-01-30T01:18:27;17.35;;;10.43;;
66523;SDS011;53350;52.210;5.160;2024-01-30T01:20:53;17.60;;;10.50;;
66523;SDS011;53350;52.210;5.160;2024-01-30T01:23:19;18.17;;;10.07;;
66523;SDS011;53350;52.210;5.160;2024-01-30T01:25:46;17.55;;;10.02;;
66523;SDS011;53350;52.210;5.160;2024-01-30T01:28:12;15.50;;;9.98;;
66523;SDS011;53350;52.210;5.160;2024-01-30T01:30:39;16.48;;;10.02;;
66523;SDS011;53350;52.210;5.160;2024-01-30T01:33:05;19.02;;;10.45;;
66523;SDS011;53350;52.210;5.160;2024-01-30T01:35:33;15.50;;;10.15;;
66523;SDS011;53350;52.210;5.160;2024-01-30T01:37:59;19.02;;;9.80;;
66523;SDS011;53350;52.210;5.160;2024-01-30T01:40:26;17.00;;;10.18;;
66523;SDS011;53350;52.210;5.160;2024-01-30T01:42:54;18.38;;;10.40;;
66523;SDS011;53350;52.210;5.160;2024-01-30T01:45:21;16.50;;;10.48;;
66523;SDS011;53350;52.210;5.160;2024-01-30T01:47:49;15.40;;;10.45;;
66523;SDS011;53350;52.210;5.160;2024-01-30T01:50:17;17.20;;;9.73;;
66523;SDS011;53350;52.210;5.160;2024-01-30T01:52:47;17.17;;;9.25;;
66523;SDS011;53350;52.210;5.160;2024-01-30T01:55:14;14.35;;;9.43;;
66523;SDS011;53350;52.210;5.160;2024-01-30T01:57:42;17.55;;;10.43;;
66523;SDS011;53350;52.210;5.160;2024-01-30T02:00:09;17.90;;;10.18;;
66523;SDS011;53350;52.210;5.160;2024-01-30T02:02:37;17.17;;;9.73;;
66523;SDS011;53350;52.210;5.160;2024-01-30T02:05:05;15.37;;;9.73;;
66523;SDS011;53350;52.210;5.160;2024-01-30T02:07:32;15.80;;;9.45;;
66523;SDS011;53350;52.210;5.160;2024-01-30T02:10:00;15.73;;;9.90;;
66523;SDS011;53350;52.210;5.160;2024-01-30T02:12:26;17.00;;;9.98;;
66523;SDS011;53350;52.210;5.160;2024-01-30T02:14:52;14.90;;;9.30;;
66523;SDS011;53350;52.210;5.160;2024-01-30T02:17:20;15.48;;;9.13;;
66523;SDS011;53350;52.210;5.160;2024-01-30T02:19:48;15.68;;;9.55;;
66523;SDS011;53350;52.210;5.160;2024-01-30T02:22:15;14.93;;;9.88;;
66523;SDS011;53350;52.210;5.160;2024-01-30T02:24:43;14.65;;;9.20;;
66523;SDS011;53350;52.210;5.160;2024-01-30T02:27:09;16.48;;;9.85;;
66523;SDS011;53350;52.210;5.160;2024-01-30T02:29:36;14.77;;;9.70;;
66523;SDS011;53350;52.210;5.160;2024-01-30T02:32:02;14.80;;;10.13;;
66523;SDS011;53350;52.210;5.160;2024-01-30T02:34:29;15.38;;;10.63;;
66523;SDS011;53350;52.210;5.160;2024-01-30T02:36:55;14.85;;;9.95;;
66523;SDS011;53350;52.210;5.160;2024-01-30T02:39:23;14.40;;;9.40;;
66523;SDS011;53350;52.210;5.160;2024-01-30T02:41:50;14.73;;;9.63;;
66523;SDS011;53350;52.210;5.160;2024-01-30T02:44:17;14.65;;;8.68;;
66523;SDS011;53350;52.210;5.160;2024-01-30T02:46:43;16.95;;;9.82;;
66523;SDS011;53350;52.210;5.160;2024-01-30T02:49:10;18.30;;;10.13;;
66523;SDS011;53350;52.210;5.160;2024-01-30T02:51:37;15.15;;;9.10;;
66523;SDS011;53350;52.210;5.160;2024-01-30T02:54:03;15.55;;;9.60;;
66523;SDS011;53350;52.210;5.160;2024-01-30T02:56:31;14.93;;;10.00;;
66523;SDS011;53350;52.210;5.160;2024-01-30T02:58:58;15.80;;;10.18;;
66523;SDS011;53350;52.210;5.160;2024-01-30T03:01:24;16.48;;;9.32;;
66523;SDS011;53350;52.210;5.160;2024-01-30T03:03:50;13.13;;;9.35;;
66523;SDS011;53350;52.210;5.160;2024-01-30T03:06:17;16.20;;;8.95;;
66523;SDS011;53350;52.210;5.160;2024-01-30T03:08:45;16.55;;;9.85;;
66523;SDS011;53350;52.210;5.160;2024-01-30T03:11:11;16.45;;;8.88;;
66523;SDS011;53350;52.210;5.160;2024-01-30T03:13:39;14.77;;;9.88;;
66523;SDS011;53350;52.210;5.160;2024-01-30T03:16:06;20.83;;;9.88;;
66523;SDS011;53350;52.210;5.160;2024-01-30T03:18:32;18.38;;;9.77;;
66523;SDS011;53350;52.210;5.160;2024-01-30T03:20:59;16.98;;;9.45;;
66523;SDS011;53350;52.210;5.160;2024-01-30T03:23:26;15.38;;;9.95;;
66523;SDS011;53350;52.210;5.160;2024-01-30T03:25:52;16.80;;;9.93;;
66523;SDS011;53350;52.210;5.160;2024-01-30T03:28:18;15.10;;;9.63;;
66523;SDS011;53350;52.210;5.160;2024-01-30T03:30:46;16.88;;;9.63;;
66523;SDS011;53350;52.210;5.160;2024-01-30T03:33:13;15.65;;;9.82;;
66523;SDS011;53350;52.210;5.160;2024-01-30T03:35:39;15.07;;;9.23;;
66523;SDS011;53350;52.210;5.160;2024-01-30T03:38:05;15.48;;;9.05;;
66523;SDS011;53350;52.210;5.160;2024-01-30T03:40:32;20.10;;;9.32;;
66523;SDS011;53350;52.210;5.160;2024-01-30T03:42:58;16.73;;;9.73;;
66523;SDS011;53350;52.210;5.160;2024-01-30T03:45:25;15.48;;;9.85;;
66523;SDS011;53350;52.210;5.160;2024-01-30T03:47:52;12.30;;;8.82;;
66523;SDS011;53350;52.210;5.160;2024-01-30T03:50:19;16.13;;;9.57;;
66523;SDS011;53350;52.210;5.160;2024-01-30T03:52:45;15.15;;;8.73;;
66523;SDS011;53350;52.210;5.160;2024-01-30T03:55:12;15.95;;;9.30;;
66523;SDS011;53350;52.210;5.160;2024-01-30T03:57:38;14.52;;;9.48;;
66523;SDS011;53350;52.210;5.160;2024-01-30T04:00:05;16.17;;;9.43;;
66523;SDS011;53350;52.210;5.160;2024-01-30T04:05:01;15.13;;;9.55;;
66523;SDS011;53350;52.210;5.160;2024-01-30T04:07:27;18.45;;;9.90;;
66523;SDS011;53350;52.210;5.160;2024-01-30T04:09:54;17.05;;;10.10;;
66523;SDS011;53350;52.210;5.160;2024-01-30T04:12:20;18.60;;;9.30;;
66523;SDS011;53350;52.210;5.160;2024-01-30T04:14:47;14.48;;;9.07;;
66523;SDS011;53350;52.210;5.160;2024-01-30T04:17:13;17.17;;;10.85;;
66523;SDS011;53350;52.210;5.160;2024-01-30T04:19:40;15.88;;;9.70;;
66523;SDS011;53350;52.210;5.160;2024-01-30T04:22:08;17.27;;;10.10;;
66523;SDS011;53350;52.210;5.160;2024-01-30T04:24:35;16.70;;;10.65;;
66523;SDS011;53350;52.210;5.160;2024-01-30T04:27:01;17.00;;;10.40;;
66523;SDS011;53350;52.210;5.160;2024-01-30T04:29:28;13.27;;;9.30;;
66523;SDS011;53350;52.210;5.160;2024-01-30T04:31:54;19.80;;;10.38;;
66523;SDS011;53350;52.210;5.160;2024-01-30T04:34:20;16.90;;;10.52;;
66523;SDS011;53350;52.210;5.160;2024-01-30T04:36:47;17.25;;;10.77;;
66523;SDS011;53350;52.210;5.160;2024-01-30T04:39:15;19.52;;;10.55;;
66523;SDS011;53350;52.210;5.160;2024-01-30T04:41:41;19.52;;;10.02;;
66523;SDS011;53350;52.210;5.160;2024-01-30T04:44:08;18.40;;;10.85;;
66523;SDS011;53350;52.210;5.160;2024-01-30T04:46:34;17.77;;;10.52;;
66523;SDS011;53350;52.210;5.160;2024-01-30T04:49:00;18.55;;;10.52;;
66523;SDS011;53350;52.210;5.160;2024-01-30T04:51:28;17.70;;;10.13;;
66523;SDS011;53350;52.210;5.160;2024-01-30T04:53:55;19.48;;;11.35;;
66523;SDS011;53350;52.210;5.160;2024-01-30T04:56:23;18.65;;;10.10;;
66523;SDS011;53350;52.210;5.160;2024-01-30T04:58:49;16.88;;;10.10;;
66523;SDS011;53350;52.210;5.160;2024-01-30T05:01:16;16.70;;;10.60;;
66523;SDS011;53350;52.210;5.160;2024-01-30T05:03:42;19.17;;;10.80;;
66523;SDS011;53350;52.210;5.160;2024-01-30T05:06:09;17.30;;;10.25;;
66523;SDS011;53350;52.210;5.160;2024-01-30T05:08:35;19.35;;;10.40;;
66523;SDS011;53350;52.210;5.160;2024-01-30T05:11:02;18.48;;;10.20;;
66523;SDS011;53350;52.210;5.160;2024-01-30T05:13:30;17.30;;;9.63;;
66523;SDS011;53350;52.210;5.160;2024-01-30T05:15:57;16.48;;;10.15;;
66523;SDS011;53350;52.210;5.160;2024-01-30T05:18:24;14.55;;;9.73;;
66523;SDS011;53350;52.210;5.160;2024-01-30T05:20:50;18.85;;;10.40;;
66523;SDS011;53350;52.210;5.160;2024-01-30T05:23:17;15.50;;;9.60;;
66523;SDS011;53350;52.210;5.160;2024-01-30T05:25:43;15.43;;;9.20;;
66523;SDS011;53350;52.210;5.160;2024-01-30T05:28:09;15.60;;;10.40;;
66523;SDS011;53350;52.210;5.160;2024-01-30T05:30:37;18.25;;;10.15;;
66523;SDS011;53350;52.210;5.160;2024-01-30T05:33:04;15.88;;;9.63;;
66523;SDS011;53350;52.210;5.160;2024-01-30T05:35:30;16.33;;;10.60;;
66523;SDS011;53350;52.210;5.160;2024-01-30T05:37:57;13.77;;;9.52;;
66523;SDS011;53350;52.210;5.160;2024-01-30T05:40:23;16.05;;;9.65;;
66523;SDS011;53350;52.210;5.160;2024-01-30T05:42:50;17.50;;;9.55;;
66523;SDS011;53350;52.210;5.160;2024-01-30T05:45:16;14.57;;;9.02;;
66523;SDS011;53350;52.210;5.160;2024-01-30T05:47:44;16.80;;;10.35;;
66523;SDS011;53350;52.210;5.160;2024-01-30T05:50:11;15.27;;;10.32;;
66523;SDS011;53350;52.210;5.160;2024-01-30T05:52:37;18.27;;;9.50;;
66523;SDS011;53350;52.210;5.160;2024-01-30T05:55:04;15.65;;;9.23;;
66523;SDS011;53350;52.210;5.160;2024-01-30T05:57:30;17.38;;;10.23;;
66523;SDS011;53350;52.210;5.160;2024-01-30T05:59:57;13.73;;;8.90;;
66523;SDS011;53350;52.210;5.160;2024-01-30T06:02:23;16.30;;;9.23;;
66523;SDS011;53350;52.210;5.160;2024-01-30T06:04:51;15.93;;;9.38;;
66523;SDS011;53350;52.210;5.160;2024-01-30T06:07:18;14.70;;;9.57;;
66523;SDS011;53350;52.210;5.160;2024-01-30T06:09:44;15.02;;;9.77;;
66523;SDS011;53350;52.210;5.160;2024-01-30T06:12:11;15.00;;;8.70;;
66523;SDS011;53350;52.210;5.160;2024-01-30T06:14:38;14.30;;;9.43;;
66523;SDS011;53350;52.210;5.160;2024-01-30T06:17:04;15.75;;;8.60;;
66523;SDS011;53350;52.210;5.160;2024-01-30T06:19:31;14.70;;;8.95;;
66523;SDS011;53350;52.210;5.160;2024-01-30T06:21:59;18.60;;;9.15;;
66523;SDS011;53350;52.210;5.160;2024-01-30T06:24:25;14.38;;;9.05;;
66523;SDS011;53350;52.210;5.160;2024-01-30T06:26:52;15.52;;;8.82;;
66523;SDS011;53350;52.210;5.160;2024-01-30T06:29:19;16.38;;;7.85;;
66523;SDS011;53350;52.210;5.160;2024-01-30T06:31:45;13.95;;;8.27;;
66523;SDS011;53350;52.210;5.160;2024-01-30T06:34:12;15.70;;;8.85;;
66523;SDS011;53350;52.210;5.160;2024-01-30T06:36:39;13.93;;;8.38;;
66523;SDS011;53350;52.210;5.160;2024-01-30T06:39:06;15.13;;;8.65;;
66523;SDS011;53350;52.210;5.160;2024-01-30T06:44:01;14.43;;;8.18;;
66523;SDS011;53350;52.210;5.160;2024-01-30T06:46:29;14.70;;;8.60;;
66523;SDS011;53350;52.210;5.160;2024-01-30T06:48:55;15.90;;;8.40;;
66523;SDS011;53350;52.210;5.160;2024-01-30T06:51:22;14.20;;;8.52;;
66523;SDS011;53350;52.210;5.160;2024-01-30T06:53:48;17.63;;;8.10;;
66523;SDS011;53350;52.210;5.160;2024-01-30T06:56:16;18.40;;;8.98;;
66523;SDS011;53350;52.210;5.160;2024-01-30T06:58:45;15.02;;;8.13;;
66523;SDS011;53350;52.210;5.160;2024-01-30T07:01:12;15.68;;;8.55;;
66523;SDS011;53350;52.210;5.160;2024-01-30T07:03:39;14.40;;;8.90;;
66523;SDS011;53350;52.210;5.160;2024-01-30T07:06:05;17.13;;;9.18;;
66523;SDS011;53350;52.210;5.160;2024-01-30T07:08:32;13.80;;;8.02;;
66523;SDS011;53350;52.210;5.160;2024-01-30T07:10:58;12.13;;;7.95;;
66523;SDS011;53350;52.210;5.160;2024-01-30T07:13:27;17.98;;;10.68;;
66523;SDS011;53350;52.210;5.160;2024-01-30T07:15:54;13.38;;;8.23;;
66523;SDS011;53350;52.210;5.160;2024-01-30T07:18:20;15.18;;;8.10;;
66523;SDS011;53350;52.210;5.160;2024-01-30T07:20:47;15.48;;;8.80;;
66523;SDS011;53350;52.210;5.160;2024-01-30T07:23:14;13.55;;;7.97;;
66523;SDS011;53350;52.210;5.160;2024-01-30T07:25:42;16.80;;;8.43;;
66523;SDS011;53350;52.210;5.160;2024-01-30T07:28:09;14.70;;;8.27;;
66523;SDS011;53350;52.210;5.160;2024-01-30T07:30:38;19.35;;;9.65;;
66523;SDS011;53350;52.210;5.160;2024-01-30T07:33:05;14.77;;;8.10;;
66523;SDS011;53350;52.210;5.160;2024-01-30T07:35:31;16.52;;;8.25;;
66523;SDS011;53350;52.210;5.160;2024-01-30T07:37:58;16.77;;;7.85;;
66523;SDS011;53350;52.210;5.160;2024-01-30T07:40:24;15.73;;;7.88;;
66523;SDS011;53350;52.210;5.160;2024-01-30T07:42:50;15.43;;;8.48;;
66523;SDS011;53350;52.210;5.160;2024-01-30T07:45:19;17.30;;;7.20;;
66523;SDS011;53350;52.210;5.160;2024-01-30T07:47:48;15.82;;;8.15;;
66523;SDS011;53350;52.210;5.160;2024-01-30T07:50:15;14.15;;;7.60;;
66523;SDS011;53350;52.210;5.160;2024-01-30T07:52:41;16.98;;;7.57;;
66523;SDS011;53350;52.210;5.160;2024-01-30T07:55:08;14.68;;;8.60;;
66523;SDS011;53350;52.210;5.160;2024-01-30T07:57:35;16.77;;;7.65;;
66523;SDS011;53350;52.210;5.160;2024-01-30T08:00:01;15.30;;;7.65;;
66523;SDS011;53350;52.210;5.160;2024-01-30T08:02:28;16.25;;;7.78;;
66523;SDS011;53350;52.210;5.160;2024-01-30T08:04:56;17.95;;;8.27;;
66523;SDS011;53350;52.210;5.160;2024-01-30T08:07:23;14.02;;;7.50;;
66523;SDS011;53350;52.210;5.160;2024-01-30T08:09:49;17.70;;;7.97;;
66523;SDS011;53350;52.210;5.160;2024-01-30T08:12:16;15.45;;;7.05;;
66523;SDS011;53350;52.210;5.160;2024-01-30T08:14:42;12.90;;;6.55;;
66523;SDS011;53350;52.210;5.160;2024-01-30T08:17:09;15.15;;;7.72;;
66523;SDS011;53350;52.210;5.160;2024-01-30T08:19:35;14.68;;;7.43;;
66523;SDS011;53350;52.210;5.160;2024-01-30T08:22:03;17.13;;;7.72;;
66523;SDS011;53350;52.210;5.160;2024-01-30T08:24:29;15.27;;;7.20;;
66523;SDS011;53350;52.210;5.160;2024-01-30T08:26:56;16.05;;;7.00;;
66523;SDS011;53350;52.210;5.160;2024-01-30T08:29:23;14.75;;;8.15;;
66523;SDS011;53350;52.210;5.160;2024-01-30T08:31:49;14.40;;;6.80;;
66523;SDS011;53350;52.210;5.160;2024-01-30T08:34:16;15.98;;;7.35;;
66523;SDS011;53350;52.210;5.160;2024-01-30T08:36:42;16.80;;;6.88;;
66523;SDS011;53350;52.210;5.160;2024-01-30T08:39:11;15.07;;;7.40;;
66523;SDS011;53350;52.210;5.160;2024-01-30T08:41:38;20.00;;;7.85;;
66523;SDS011;53350;52.210;5.160;2024-01-30T08:44:04;15.60;;;7.75;;
66523;SDS011;53350;52.210;5.160;2024-01-30T08:46:31;16.75;;;8.38;;
66523;SDS011;53350;52.210;5.160;2024-01-30T08:48:57;18.98;;;7.93;;
66523;SDS011;53350;52.210;5.160;2024-01-30T08:51:24;17.67;;;7.72;;
66523;SDS011;53350;52.210;5.160;2024-01-30T08:53:50;16.75;;;7.47;;
66523;SDS011;53350;52.210;5.160;2024-01-30T08:56:19;20.05;;;7.90;;
66523;SDS011;53350;52.210;5.160;2024-01-30T08:58:45;16.83;;;7.13;;
66523;SDS011;53350;52.210;5.160;2024-01-30T09:01:11;18.50;;;7.43;;
66523;SDS011;53350;52.210;5.160;2024-01-30T09:03:38;15.20;;;7.53;;
66523;SDS011;53350;52.210;5.160;2024-01-30T09:06:07;16.77;;;7.80;;
66523;SDS011;53350;52.210;5.160;2024-01-30T09:08:34;17.98;;;8.13;;
66523;SDS011;53350;52.210;5.160;2024-01-30T09:11:00;15.07;;;7.18;;
66523;SDS011;53350;52.210;5.160;2024-01-30T09:13:28;18.73;;;9.05;;
66523;SDS011;53350;52.210;5.160;2024-01-30T09:15:55;20.17;;;7.93;;
66523;SDS011;53350;52.210;5.160;2024-01-30T09:18:21;16.02;;;6.93;;
66523;SDS011;53350;52.210;5.160;2024-01-30T09:20:48;17.15;;;8.02;;
66523;SDS011;53350;52.210;5.160;2024-01-30T09:23:14;17.20;;;7.22;;
66523;SDS011;53350;52.210;5.160;2024-01-30T09:25:42;17.80;;;7.68;;
66523;SDS011;53350;52.210;5.160;2024-01-30T09:28:08;13.45;;;6.88;;
66523;SDS011;53350;52.210;5.160;2024-01-30T09:30:36;19.15;;;7.82;;
66523;SDS011;53350;52.210;5.160;2024-01-30T09:33:03;17.25;;;7.35;;
66523;SDS011;53350;52.210;5.160;2024-01-30T09:35:29;10.90;;;5.40;;
66523;SDS011;53350;52.210;5.160;2024-01-30T09:37:56;17.15;;;7.70;;
66523;SDS011;53350;52.210;5.160;2024-01-30T09:40:22;15.90;;;8.38;;
66523;SDS011;53350;52.210;5.160;2024-01-30T09:42:49;17.77;;;8.02;;
66523;SDS011;53350;52.210;5.160;2024-01-30T09:45:17;15.90;;;7.43;;
66523;SDS011;53350;52.210;5.160;2024-01-30T09:47:46;11.90;;;6.85;;
66523;SDS011;53350;52.210;5.160;2024-01-30T09:50:13;14.10;;;6.85;;
66523;SDS011;53350;52.210;5.160;2024-01-30T09:52:40;15.40;;;6.93;;
66523;SDS011;53350;52.210;5.160;2024-01-30T09:55:07;20.00;;;7.43;;
66523;SDS011;53350;52.210;5.160;2024-01-30T09:57:33;21.20;;;7.93;;
66523;SDS011;53350;52.210;5.160;2024-01-30T10:00:00;17.63;;;7.70;;
66523;SDS011;53350;52.210;5.160;2024-01-30T10:02:27;16.98;;;7.32;;
66523;SDS011;53350;52.210;5.160;2024-01-30T10:04:55;13.57;;;7.05;;
66523;SDS011;53350;52.210;5.160;2024-01-30T10:07:21;10.05;;;6.05;;
66523;SDS011;53350;52.210;5.160;2024-01-30T10:09:48;16.40;;;7.57;;
66523;SDS011;53350;52.210;5.160;2024-01-30T10:12:15;18.05;;;7.28;;
66523;SDS011;53350;52.210;5.160;2024-01-30T10:14:41;13.27;;;6.80;;
66523;SDS011;53350;52.210;5.160;2024-01-30T10:17:09;13.90;;;6.55;;
66523;SDS011;53350;52.210;5.160;2024-01-30T10:19:36;17.52;;;7.07;;
66523;SDS011;53350;52.210;5.160;2024-01-30T10:22:04;20.17;;;6.72;;
66523;SDS011;53350;52.210;5.160;2024-01-30T10:24:31;14.32;;;7.50;;
66523;SDS011;53350;52.210;5.160;2024-01-30T10:26:57;14.27;;;6.07;;
66523;SDS011;53350;52.210;5.160;2024-01-30T10:29:24;16.10;;;6.28;;
66523;SDS011;53350;52.210;5.160;2024-01-30T10:31:57;16.08;;;7.15;;
66523;SDS011;53350;52.210;5.160;2024-01-30T10:34:25;14.38;;;6.35;;
66523;SDS011;53350;52.210;5.160;2024-01-30T10:36:54;10.38;;;5.22;;
66523;SDS011;53350;52.210;5.160;2024-01-30T10:39:28;10.82;;;5.28;;
66523;SDS011;53350;52.210;5.160;2024-01-30T10:41:56;9.93;;;4.35;;
66523;SDS011;53350;52.210;5.160;2024-01-30T10:44:25;15.45;;;4.90;;
66523;SDS011;53350;52.210;5.160;2024-01-30T10:46:56;14.45;;;4.82;;
66523;SDS011;53350;52.210;5.160;2024-01-30T10:49:29;10.57;;;4.65;;
66523;SDS011;53350;52.210;5.160;2024-01-30T10:51:56;15.80;;;4.72;;
66523;SDS011;53350;52.210;5.160;2024-01-30T10:54:24;20.75;;;5.45;;
66523;SDS011;53350;52.210;5.160;2024-01-30T10:56:53;11.63;;;4.30;;
66523;SDS011;53350;52.210;5.160;2024-01-30T11:04:16;9.55;;;2.55;;
66523;SDS011;53350;52.210;5.160;2024-01-30T11:06:42;8.52;;;2.22;;
66523;SDS011;53350;52.210;5.160;2024-01-30T11:09:10;5.38;;;1.83;;
66523;SDS011;53350;52.210;5.160;2024-01-30T11:11:50;8.35;;;2.00;;
66523;SDS011;53350;52.210;5.160;2024-01-30T11:14:23;12.23;;;2.72;;
66523;SDS011;53350;52.210;5.160;2024-01-30T11:16:51;11.95;;;2.47;;
66523;SDS011;53350;52.210;5.160;2024-01-30T11:19:22;11.10;;;1.98;;
66523;SDS011;53350;52.210;5.160;2024-01-30T11:21:50;13.70;;;2.88;;
66523;SDS011;53350;52.210;5.160;2024-01-30T11:24:18;10.60;;;1.90;;
66523;SDS011;53350;52.210;5.160;2024-01-30T11:26:45;15.32;;;2.90;;
66523;SDS011;53350;52.210;5.160;2024-01-30T11:29:13;7.68;;;2.50;;
66523;SDS011;53350;52.210;5.160;2024-01-30T11:31:41;8.15;;;2.80;;
66523;SDS011;53350;52.210;5.160;2024-01-30T11:34:17;8.88;;;2.47;;
66523;SDS011;53350;52.210;5.160;2024-01-30T11:36:45;8.65;;;2.78;;
66523;SDS011;53350;52.210;5.160;2024-01-30T11:39:17;8.73;;;3.28;;
66523;SDS011;53350;52.210;5.160;2024-01-30T11:44:13;6.07;;;2.92;;
66523;SDS011;53350;52.210;5.160;2024-01-30T11:46:42;5.55;;;2.53;;
66523;SDS011;53350;52.210;5.160;2024-01-30T11:49:09;6.63;;;2.25;;
66523;SDS011;53350;52.210;5.160;2024-01-30T11:51:36;7.47;;;2.08;;
66523;SDS011;53350;52.210;5.160;2024-01-30T11:54:02;5.88;;;2.55;;
66523;SDS011;53350;52.210;5.160;2024-01-30T11:56:29;8.07;;;2.60;;
66523;SDS011;53350;52.210;5.160;2024-01-30T11:58:55;9.30;;;1.80;;
66523;SDS011;53350;52.210;5.160;2024-01-30T12:01:22;2.92;;;1.48;;
66523;SDS011;53350;52.210;5.160;2024-01-30T12:03:50;4.38;;;1.35;;
66523;SDS011;53350;52.210;5.160;2024-01-30T12:06:17;4.35;;;1.50;;
66523;SDS011;53350;52.210;5.160;2024-01-30T12:08:54;8.27;;;1.40;;
66523;SDS011;53350;52.210;5.160;2024-01-30T12:11:22;7.60;;;1.42;;
66523;SDS011;53350;52.210;5.160;2024-01-30T12:13:49;3.65;;;1.02;;
66523;SDS011;53350;52.210;5.160;2024-01-30T12:16:16;5.53;;;1.38;;
66523;SDS011;53350;52.210;5.160;2024-01-30T12:18:43;4.88;;;1.00;;
66523;SDS011;53350;52.210;5.160;2024-01-30T12:21:11;9.18;;;1.67;;
66523;SDS011;53350;52.210;5.160;2024-01-30T12:23:37;4.22;;;1.30;;
66523;SDS011;53350;52.210;5.160;2024-01-30T12:26:04;5.75;;;1.33;;
66523;SDS011;53350;52.210;5.160;2024-01-30T12:28:32;7.07;;;1.80;;
66523;SDS011;53350;52.210;5.160;2024-01-30T12:31:00;8.43;;;1.58;;
66523;SDS011;53350;52.210;5.160;2024-01-30T12:33:28;4.90;;;1.10;;
66523;SDS011;53350;52.210;5.160;2024-01-30T12:35:55;8.20;;;1.40;;
66523;SDS011;53350;52.210;5.160;2024-01-30T12:38:23;8.63;;;1.38;;
66523;SDS011;53350;52.210;5.160;2024-01-30T12:40:53;6.70;;;1.13;;
66523;SDS011;53350;52.210;5.160;2024-01-30T12:43:20;10.05;;;1.40;;
66523;SDS011;53350;52.210;5.160;2024-01-30T12:45:47;7.75;;;1.25;;
66523;SDS011;53350;52.210;5.160;2024-01-30T12:48:13;8.32;;;1.50;;
66523;SDS011;53350;52.210;5.160;2024-01-30T12:50:40;6.43;;;1.33;;
66523;SDS011;53350;52.210;5.160;2024-01-30T12:53:07;7.88;;;1.60;;
66523;SDS011;53350;52.210;5.160;2024-01-30T12:55:35;6.18;;;1.40;;
66523;SDS011;53350;52.210;5.160;2024-01-30T12:58:02;8.45;;;1.70;;
66523;SDS011;53350;52.210;5.160;2024-01-30T13:00:28;6.13;;;1.38;;
66523;SDS011;53350;52.210;5.160;2024-01-30T13:02:55;9.48;;;1.50;;
66523;SDS011;53350;52.210;5.160;2024-01-30T13:05:21;8.27;;;1.20;;
66523;SDS011;53350;52.210;5.160;2024-01-30T13:07:48;4.25;;;1.10;;
66523;SDS011;53350;52.210;5.160;2024-01-30T13:10:14;4.25;;;1.40;;
66523;SDS011;53350;52.210;5.160;2024-01-30T13:12:42;9.70;;;1.50;;
66523;SDS011;53350;52.210;5.160;2024-01-30T13:15:09;10.50;;;1.35;;
66523;SDS011;53350;52.210;5.160;2024-01-30T13:17:36;7.82;;;1.35;;
66523;SDS011;53350;52.210;5.160;2024-01-30T13:20:03;9.40;;;1.50;;
66523;SDS011;53350;52.210;5.160;2024-01-30T13:22:31;7.05;;;1.23;;
66523;SDS011;53350;52.210;5.160;2024-01-30T13:24:57;10.07;;;1.50;;
66523;SDS011;53350;52.210;5.160;2024-01-30T13:27:24;7.80;;;1.92;;
66523;SDS011;53350;52.210;5.160;2024-01-30T13:29:52;7.35;;;1.23;;
66523;SDS011;53350;52.210;5.160;2024-01-30T13:32:18;8.32;;;1.40;;
66523;SDS011;53350;52.210;5.160;2024-01-30T13:34:45;6.18;;;1.52;;
66523;SDS011;53350;52.210;5.160;2024-01-30T13:37:11;6.53;;;1.40;;
66523;SDS011;53350;52.210;5.160;2024-01-30T13:39:38;5.18;;;1.27;;
66523;SDS011;53350;52.210;5.160;2024-01-30T13:42:05;6.72;;;1.40;;
66523;SDS011;53350;52.210;5.160;2024-01-30T13:44:31;4.93;;;1.25;;
66523;SDS011;53350;52.210;5.160;2024-01-30T13:46:59;5.07;;;1.23;;
66523;SDS011;53350;52.210;5.160;2024-01-30T13:49:25;6.55;;;1.40;;
66523;SDS011;53350;52.210;5.160;2024-01-30T13:51:52;11.32;;;1.92;;
66523;SDS011;53350;52.210;5.160;2024-01-30T13:54:18;7.47;;;1.40;;
66523;SDS011;53350;52.210;5.160;2024-01-30T13:56:45;7.65;;;1.48;;
66523;SDS011;53350;52.210;5.160;2024-01-30T13:59:11;9.27;;;1.38;;
66523;SDS011;53350;52.210;5.160;2024-01-30T14:01:38;8.95;;;1.70;;
66523;SDS011;53350;52.210;5.160;2024-01-30T14:04:05;7.82;;;1.95;;
66523;SDS011;53350;52.210;5.160;2024-01-30T14:06:32;5.07;;;1.60;;
66523;SDS011;53350;52.210;5.160;2024-01-30T14:08:58;7.68;;;1.80;;
66523;SDS011;53350;52.210;5.160;2024-01-30T14:11:25;7.68;;;2.55;;
66523;SDS011;53350;52.210;5.160;2024-01-30T14:13:51;6.07;;;1.95;;
66523;SDS011;53350;52.210;5.160;2024-01-30T14:16:17;7.80;;;1.85;;
66523;SDS011;53350;52.210;5.160;2024-01-30T14:18:44;7.53;;;1.80;;
66523;SDS011;53350;52.210;5.160;2024-01-30T14:21:12;5.90;;;1.73;;
66523;SDS011;53350;52.210;5.160;2024-01-30T14:23:38;6.05;;;1.65;;
66523;SDS011;53350;52.210;5.160;2024-01-30T14:26:05;5.78;;;1.40;;
66523;SDS011;53350;52.210;5.160;2024-01-30T14:28:31;6.47;;;1.40;;
66523;SDS011;53350;52.210;5.160;2024-01-30T14:30:58;5.22;;;1.60;;
66523;SDS011;53350;52.210;5.160;2024-01-30T14:33:25;3.03;;;1.23;;
66523;SDS011;53350;52.210;5.160;2024-01-30T14:35:52;4.97;;;1.75;;
66523;SDS011;53350;52.210;5.160;2024-01-30T14:38:19;6.35;;;1.70;;
66523;SDS011;53350;52.210;5.160;2024-01-30T14:40:46;5.32;;;1.40;;
66523;SDS011;53350;52.210;5.160;2024-01-30T14:43:12;4.70;;;1.58;;